Time;durP1;ratioP1;P1;durP2;ratioP2;P2;SDS_P1;SDS_P2;PMS_P1;PMS_P2;Temp;Humidity;BMP_temperature;BMP_pressure;BME280_temperature;BME280_humidity;BME280_pressure;Samples;Min_cycle;Max_cycle;Signal;HPM_P1;HPM_P2
2024/04/17 00:00:33;;;;;;;;;;;;;;;;;;4451144;32;20312;-63
2024/04/17 00:02:58;;;;;;;;;;;;;;;;;;4436989;32;19941;-64
2024/04/17 00:05:23;;;;;;;;;;;;;;;;;;4449489;32;19980;-64
2024/04/17 00:07:49;;;;;;;;;;;;;;;;;;4445296;32;20298;-63
2024/04/17 00:10:14;;;;;;;;;;;;;;;;;;4433886;32;19941;-63
2024/04/17 00:12:39;;;;;;;;;;;;;;;;;;4434685;32;20309;-62
2024/04/17 00:15:04;;;;;;;;;;;;;;;;;;4436239;32;19983;-63
2024/04/17 00:17:29;;;;;;;;;;;;;;;;;;4435114;32;19929;-63
2024/04/17 00:19:54;;;;;;;;;;;;;;;;;;4436718;32;19976;-62
2024/04/17 00:22:20;;;;;;;;;;;;;;;;;;4435933;32;19933;-63
2024/04/17 00:24:45;;;;;;;;;;;;;;;;;;4435786;32;19948;-63
2024/04/17 00:27:10;;;;;;;;;;;;;;;;;;4436265;32;19948;-63
2024/04/17 00:29:35;;;;;;;;;;;;;;;;;;4434884;32;19933;-63
2024/04/17 00:32:00;;;;;;;;;;;;;;;;;;4446390;32;20397;-64
2024/04/17 00:34:25;;;;;;;;;;;;;;;;;;4454315;32;20218;-63
2024/04/17 00:36:50;;;;;;;;;;;;;;;;;;4453580;32;19932;-63
2024/04/17 00:39:16;;;;;;;;;;;;;;;;;;4454258;32;19940;-63
2024/04/17 00:41:41;;;;;;;;;;;;;;;;;;4452814;32;19940;-66
2024/04/17 00:44:06;;;;;;;;;;;;;;;;;;4439222;32;19967;-82
2024/04/17 00:46:31;;;;;;;;;;;;;;;;;;4453690;32;19941;-75
2024/04/17 00:48:56;;;;;;;;;;;;;;;;;;4448337;32;20337;-71
2024/04/17 00:51:21;;;;;;;;;;;;;;;;;;4439632;32;20329;-69
2024/04/17 00:53:46;;;;;;;;;;;;;;;;;;4439318;32;20256;-69
2024/04/17 00:56:11;;;;;;;;;;;;;;;;;;4439960;32;19932;-70
2024/04/17 00:58:36;;;;;;;;;;;;;;;;;;4439240;32;19951;-71
2024/04/17 01:01:02;;;;;;;;;;;;;;;;;;4454769;32;19968;-71
2024/04/17 01:03:28;;;;;;;;;;;;;;;;;;4454839;32;19940;-71
2024/04/17 01:05:53;;;;;;;;;;;;;;;;;;4449686;32;19998;-70
2024/04/17 01:08:18;;;;;;;;;;;;;;;;;;4424351;32;19937;-71
2024/04/17 01:10:43;;;;;;;;;;;;;;;;;;4438718;32;19964;-72
2024/04/17 01:13:08;;;;;;;;;;;;;;;;;;4437957;32;19997;-69
2024/04/17 01:15:33;;;;;;;;;;;;;;;;;;4437620;32;20314;-70
2024/04/17 01:17:59;;;;;;;;;;;;;;;;;;4423689;32;19960;-71
2024/04/17 01:20:24;;;;;;;;;;;;;;;;;;4441856;32;19932;-70
2024/04/17 01:22:49;;;;;;;;;;;;;;;;;;4438719;32;19948;-69
2024/04/17 01:25:14;;;;;;;;;;;;;;;;;;4440551;32;19985;-69
2024/04/17 01:27:40;;;;;;;;;;;;;;;;;;4453382;32;19942;-71
2024/04/17 01:30:05;;;;;;;;;;;;;;;;;;4453088;32;19966;-71
2024/04/17 01:32:31;;;;;;;;;;;;;;;;;;4438768;32;19956;-72
2024/04/17 01:34:56;;;;;;;;;;;;;;;;;;4440222;32;19936;-70
2024/04/17 01:37:21;;;;;;;;;;;;;;;;;;4440306;32;19949;-70
2024/04/17 01:39:46;;;;;;;;;;;;;;;;;;4453148;32;19941;-70
2024/04/17 01:42:11;;;;;;;;;;;;;;;;;;4454772;32;19974;-69
2024/04/17 01:44:36;;;;;;;;;;;;;;;;;;4439980;32;19951;-71
2024/04/17 01:47:01;;;;;;;;;;;;;;;;;;4453928;32;19969;-70
2024/04/17 01:49:26;;;;;;;;;;;;;;;;;;4452810;32;19932;-71
2024/04/17 01:51:51;;;;;;;;;;;;;;;;;;4453959;32;19996;-69
2024/04/17 01:54:16;;;;;;;;;;;;;;;;;;4454741;32;19944;-70
2024/04/17 01:56:41;;;;;;;;;;;;;;;;;;4453778;32;20293;-71
2024/04/17 01:59:07;;;;;;;;;;;;;;;;;;4454658;32;19977;-69
2024/04/17 02:01:32;;;;;;;;;;;;;;;;;;4452605;32;19936;-70
2024/04/17 02:03:57;;;;;;;;;;;;;;;;;;4438336;32;19940;-71
2024/04/17 02:06:22;;;;;;;;;;;;;;;;;;4452786;32;19966;-71
2024/04/17 02:08:47;;;;;;;;;;;;;;;;;;4440110;32;20321;-71
2024/04/17 02:11:12;;;;;;;;;;;;;;;;;;4440272;32;20249;-70
2024/04/17 02:13:37;;;;;;;;;;;;;;;;;;4454802;32;19974;-71
2024/04/17 02:16:02;;;;;;;;;;;;;;;;;;4448717;32;19933;-71
2024/04/17 02:18:27;;;;;;;;;;;;;;;;;;4437422;32;19992;-71
2024/04/17 02:20:52;;;;;;;;;;;;;;;;;;4438329;32;19952;-71
2024/04/17 02:23:17;;;;;;;;;;;;;;;;;;4438656;32;19933;-71
2024/04/17 02:25:43;;;;;;;;;;;;;;;;;;4435608;32;19984;-69
2024/04/17 02:28:08;;;;;;;;;;;;;;;;;;4435284;32;19945;-72
2024/04/17 02:30:33;;;;;;;;;;;;;;;;;;4436876;32;20302;-71
2024/04/17 02:32:58;;;;;;;;;;;;;;;;;;4438273;32;19948;-70
2024/04/17 02:35:23;;;;;;;;;;;;;;;;;;4436005;32;20016;-72
2024/04/17 02:37:48;;;;;;;;;;;;;;;;;;4436193;32;19974;-72
2024/04/17 02:40:13;;;;;;;;;;;;;;;;;;4437577;32;19944;-71
2024/04/17 02:42:38;;;;;;;;;;;;;;;;;;4436102;32;20010;-70
2024/04/17 02:45:03;;;;;;;;;;;;;;;;;;4436756;32;20025;-70
2024/04/17 02:47:29;;;;;;;;;;;;;;;;;;4434712;32;19970;-71
2024/04/17 02:49:54;;;;;;;;;;;;;;;;;;4437659;32;19952;-72
2024/04/17 02:52:19;;;;;;;;;;;;;;;;;;4436144;32;19955;-71
2024/04/17 02:54:44;;;;;;;;;;;;;;;;;;4437296;32;19980;-72
2024/04/17 02:57:09;;;;;;;;;;;;;;;;;;4436553;32;20245;-71
2024/04/17 02:59:34;;;;;;;;;;;;;;;;;;4437328;32;20348;-71
2024/04/17 03:01:59;;;;;;;;;;;;;;;;;;4439034;32;19971;-72
2024/04/17 03:04:24;;;;;;;;;;;;;;;;;;4435808;32;19945;-70
2024/04/17 03:06:49;;;;;;;;;;;;;;;;;;4436138;32;19975;-70
2024/04/17 03:09:14;;;;;;;;;;;;;;;;;;4438255;32;19945;-71
2024/04/17 03:11:40;;;;;;;;;;;;;;;;;;4436234;32;19948;-72
2024/04/17 03:14:05;;;;;;;;;;;;;;;;;;4437462;32;20318;-72
2024/04/17 03:16:30;;;;;;;;;;;;;;;;;;4436502;32;19941;-71
2024/04/17 03:18:55;;;;;;;;;;;;;;;;;;4437102;32;20062;-70
2024/04/17 03:21:21;;;;;;;;;;;;;;;;;;4437904;32;19975;-71
2024/04/17 03:23:46;;;;;;;;;;;;;;;;;;4435109;32;19978;-71
2024/04/17 03:26:11;;;;;;;;;;;;;;;;;;4436351;32;20298;-71
2024/04/17 03:28:36;;;;;;;;;;;;;;;;;;4436555;32;20330;-71
2024/04/17 03:31:01;;;;;;;;;;;;;;;;;;4451264;32;19941;-70
2024/04/17 03:33:26;;;;;;;;;;;;;;;;;;4451334;32;19996;-71
2024/04/17 03:35:51;;;;;;;;;;;;;;;;;;4452136;32;19936;-71
2024/04/17 03:38:16;;;;;;;;;;;;;;;;;;4452401;32;19943;-71
2024/04/17 03:40:41;;;;;;;;;;;;;;;;;;4452968;32;19955;-71
2024/04/17 03:43:07;;;;;;;;;;;;;;;;;;4453326;32;19947;-70
2024/04/17 03:45:32;;;;;;;;;;;;;;;;;;4451047;32;19937;-71
2024/04/17 03:47:57;;;;;;;;;;;;;;;;;;4437850;32;19956;-71
2024/04/17 03:50:22;;;;;;;;;;;;;;;;;;4450593;32;19970;-71
2024/04/17 03:52:47;;;;;;;;;;;;;;;;;;4450977;32;19965;-71
2024/04/17 03:55:12;;;;;;;;;;;;;;;;;;4451011;32;19993;-71
2024/04/17 03:57:37;;;;;;;;;;;;;;;;;;4451017;32;19966;-71
2024/04/17 04:00:03;;;;;;;;;;;;;;;;;;4440182;32;19932;-70
2024/04/17 04:02:28;;;;;;;;;;;;;;;;;;4435731;32;20354;-71
2024/04/17 04:04:53;;;;;;;;;;;;;;;;;;4437420;32;19932;-71
2024/04/17 04:07:18;;;;;;;;;;;;;;;;;;4438097;32;19933;-71
2024/04/17 04:09:44;;;;;;;;;;;;;;;;;;4440343;32;19952;-72
2024/04/17 04:12:09;;;;;;;;;;;;;;;;;;4439298;32;20298;-72
2024/04/17 04:14:34;;;;;;;;;;;;;;;;;;4438096;32;20307;-71
2024/04/17 04:16:59;;;;;;;;;;;;;;;;;;4440467;32;19936;-71
2024/04/17 04:19:24;;;;;;;;;;;;;;;;;;4439029;32;19937;-72
2024/04/17 04:21:49;;;;;;;;;;;;;;;;;;4438715;32;19975;-70
2024/04/17 04:24:14;;;;;;;;;;;;;;;;;;4440572;32;19947;-71
2024/04/17 04:26:39;;;;;;;;;;;;;;;;;;4438297;32;20231;-72
2024/04/17 04:29:04;;;;;;;;;;;;;;;;;;4447683;32;20360;-71
2024/04/17 04:31:30;;;;;;;;;;;;;;;;;;4455832;32;20352;-71
2024/04/17 04:33:55;;;;;;;;;;;;;;;;;;4439623;32;20341;-71
2024/04/17 04:36:20;;;;;;;;;;;;;;;;;;4439483;32;19992;-71
2024/04/17 04:38:45;;;;;;;;;;;;;;;;;;4455687;32;19936;-71
2024/04/17 04:41:10;;;;;;;;;;;;;;;;;;4439508;32;19947;-71
2024/04/17 04:43:35;;;;;;;;;;;;;;;;;;4446882;32;20321;-71
2024/04/17 04:46:00;;;;;;;;;;;;;;;;;;4438744;32;19933;-71
2024/04/17 04:48:26;;;;;;;;;;;;;;;;;;4438000;32;19984;-72
2024/04/17 04:50:52;;;;;;;;;;;;;;;;;;4437883;32;19955;-70
2024/04/17 04:53:17;;;;;;;;;;;;;;;;;;4438688;32;19940;-72
2024/04/17 04:55:42;;;;;;;;;;;;;;;;;;4438169;32;19969;-72
2024/04/17 04:58:07;;;;;;;;;;;;;;;;;;4439467;32;19980;-72
2024/04/17 05:00:32;;;;;;;;;;;;;;;;;;4454997;32;19940;-71
2024/04/17 05:02:57;;;;;;;;;;;;;;;;;;4453377;32;20276;-71
2024/04/17 05:05:22;;;;;;;;;;;;;;;;;;4453644;32;20264;-71
2024/04/17 05:07:47;;;;;;;;;;;;;;;;;;4455456;32;19987;-71
2024/04/17 05:10:13;;;;;;;;;;;;;;;;;;4455039;32;19977;-71
2024/04/17 05:12:38;;;;;;;;;;;;;;;;;;4453421;32;19981;-71
2024/04/17 05:15:03;;;;;;;;;;;;;;;;;;4452703;32;19944;-71
2024/04/17 05:17:28;;;;;;;;;;;;;;;;;;4432219;32;19932;-71
2024/04/17 05:19:53;;;;;;;;;;;;;;;;;;4442181;32;19972;-71
2024/04/17 05:22:19;;;;;;;;;;;;;;;;;;4439192;32;19952;-71
2024/04/17 05:24:44;;;;;;;;;;;;;;;;;;4444376;32;19980;-70
2024/04/17 05:27:09;;;;;;;;;;;;;;;;;;4454900;32;19936;-71
2024/04/17 05:29:34;;;;;;;;;;;;;;;;;;4452678;32;19964;-70
2024/04/17 05:31:59;;;;;;;;;;;;;;;;;;4437867;32;19959;-72
2024/04/17 05:34:24;;;;;;;;;;;;;;;;;;4425419;32;19936;-72
2024/04/17 05:36:49;;;;;;;;;;;;;;;;;;4438233;32;19963;-70
2024/04/17 05:39:15;;;;;;;;;;;;;;;;;;4452189;32;19976;-70
2024/04/17 05:41:40;;;;;;;;;;;;;;;;;;4454203;32;19932;-70
2024/04/17 05:44:05;;;;;;;;;;;;;;;;;;4451577;32;19940;-69
2024/04/17 05:46:30;;;;;;;;;;;;;;;;;;4454808;32;20279;-69
2024/04/17 05:48:55;;;;;;;;;;;;;;;;;;4442373;32;19937;-70
2024/04/17 05:51:20;;;;;;;;;;;;;;;;;;4452497;32;19933;-71
2024/04/17 05:53:46;;;;;;;;;;;;;;;;;;4453526;32;19941;-70
2024/04/17 05:56:11;;;;;;;;;;;;;;;;;;4453889;32;19936;-70
2024/04/17 05:58:36;;;;;;;;;;;;;;;;;;4440325;32;19980;-70
2024/04/17 06:01:01;;;;;;;;;;;;;;;;;;4441872;32;19937;-70
2024/04/17 06:03:26;;;;;;;;;;;;;;;;;;4438076;32;19945;-69
2024/04/17 06:05:51;;;;;;;;;;;;;;;;;;4436756;32;19933;-70
2024/04/17 06:08:16;;;;;;;;;;;;;;;;;;4438277;32;19936;-70
2024/04/17 06:10:42;;;;;;;;;;;;;;;;;;4440590;32;20373;-70
2024/04/17 06:13:07;;;;;;;;;;;;;;;;;;4436896;32;19948;-70
2024/04/17 06:15:35;;;;;;;;;;;;;;;;;;4444838;32;19977;-71
2024/04/17 06:18:00;;;;;;;;;;;;;;;;;;4453058;32;19971;-69
2024/04/17 06:20:26;;;;;;;;;;;;;;;;;;4451950;32;19936;-71
2024/04/17 06:22:51;;;;;;;;;;;;;;;;;;4451230;32;20030;-70
2024/04/17 06:25:16;;;;;;;;;;;;;;;;;;4451936;32;19937;-71
2024/04/17 06:27:41;;;;;;;;;;;;;;;;;;4453286;32;19951;-71
2024/04/17 06:30:06;;;;;;;;;;;;;;;;;;4436984;32;19940;-71
2024/04/17 06:32:32;;;;;;;;;;;;;;;;;;4453544;32;20294;-70
2024/04/17 06:34:57;;;;;;;;;;;;;;;;;;4451744;32;19948;-70
2024/04/17 06:37:22;;;;;;;;;;;;;;;;;;4451427;32;19943;-70
2024/04/17 06:39:47;;;;;;;;;;;;;;;;;;4437697;32;20290;-71
2024/04/17 06:42:12;;;;;;;;;;;;;;;;;;4423494;32;19941;-72
2024/04/17 06:44:38;;;;;;;;;;;;;;;;;;4435841;32;19940;-72
2024/04/17 06:47:03;;;;;;;;;;;;;;;;;;4423325;32;20020;-69
2024/04/17 06:49:29;;;;;;;;;;;;;;;;;;4434133;32;20418;-72
2024/04/17 06:51:54;;;;;;;;;;;;;;;;;;4436633;32;20285;-71
2024/04/17 06:54:19;;;;;;;;;;;;;;;;;;4450567;32;19957;-70
2024/04/17 06:56:44;;;;;;;;;;;;;;;;;;4451466;32;20106;-71
2024/04/17 06:59:09;;;;;;;;;;;;;;;;;;4450953;32;19937;-71
2024/04/17 07:01:34;;;;;;;;;;;;;;;;;;4436087;32;20214;-71
2024/04/17 07:03:59;;;;;;;;;;;;;;;;;;4437486;32;19977;-70
2024/04/17 07:06:24;;;;;;;;;;;;;;;;;;4436318;32;19974;-72
2024/04/17 07:08:49;;;;;;;;;;;;;;;;;;4447452;32;19977;-72
2024/04/17 07:11:15;;;;;;;;;;;;;;;;;;4450987;32;19989;-71
2024/04/17 07:13:40;;;;;;;;;;;;;;;;;;4452803;32;19951;-71
2024/04/17 07:16:05;;;;;;;;;;;;;;;;;;4438813;32;19929;-71
2024/04/17 07:18:30;;;;;;;;;;;;;;;;;;4453279;32;19952;-71
2024/04/17 07:20:56;;;;;;;;;;;;;;;;;;4452412;32;20314;-71
2024/04/17 07:23:21;;;;;;;;;;;;;;;;;;4451234;32;19977;-71
2024/04/17 07:25:46;;;;;;;;;;;;;;;;;;4453590;32;19944;-71
2024/04/17 07:28:11;;;;;;;;;;;;;;;;;;4443035;32;19933;-72
2024/04/17 07:30:36;;;;;;;;;;;;;;;;;;4450937;32;20229;-72
2024/04/17 07:33:01;;;;;;;;;;;;;;;;;;4448473;32;19974;-73
2024/04/17 07:35:26;;;;;;;;;;;;;;;;;;4442190;32;20270;-72
2024/04/17 07:37:51;;;;;;;;;;;;;;;;;;4437898;32;19940;-71
2024/04/17 07:40:16;;;;;;;;;;;;;;;;;;4449369;32;19947;-73
2024/04/17 07:42:42;;;;;;;;;;;;;;;;;;4451106;32;19943;-73
2024/04/17 07:45:07;;;;;;;;;;;;;;;;;;4450539;32;19947;-73
2024/04/17 07:47:32;;;;;;;;;;;;;;;;;;4451418;32;19933;-70
2024/04/17 07:49:57;;;;;;;;;;;;;;;;;;4450756;32;19967;-71
2024/04/17 07:52:22;;;;;;;;;;;;;;;;;;4441125;32;19937;-71
2024/04/17 07:54:47;;;;;;;;;;;;;;;;;;4435349;32;19997;-71
2024/04/17 07:57:12;;;;;;;;;;;;;;;;;;4436055;32;20320;-72
2024/04/17 07:59:37;;;;;;;;;;;;;;;;;;4435702;32;20245;-70
2024/04/17 08:02:02;;;;;;;;;;;;;;;;;;4435645;32;19948;-71
2024/04/17 08:04:27;;;;;;;;;;;;;;;;;;4435252;32;19979;-70
2024/04/17 08:06:53;;;;;;;;;;;;;;;;;;4436651;32;19937;-71
2024/04/17 08:09:18;;;;;;;;;;;;;;;;;;4435113;32;19945;-69
2024/04/17 08:11:43;;;;;;;;;;;;;;;;;;4442261;32;20320;-72
2024/04/17 08:14:08;;;;;;;;;;;;;;;;;;4435912;32;19992;-71
2024/04/17 08:16:33;;;;;;;;;;;;;;;;;;4436635;32;19944;-70
2024/04/17 08:18:58;;;;;;;;;;;;;;;;;;4450926;32;19933;-71
2024/04/17 08:21:24;;;;;;;;;;;;;;;;;;4450062;32;19990;-70
2024/04/17 08:23:49;;;;;;;;;;;;;;;;;;4450201;32;20283;-70
2024/04/17 08:26:14;;;;;;;;;;;;;;;;;;4443038;32;20017;-70
2024/04/17 08:28:39;;;;;;;;;;;;;;;;;;4439359;32;19960;-70
2024/04/17 08:31:04;;;;;;;;;;;;;;;;;;4434698;32;19932;-72
2024/04/17 08:33:30;;;;;;;;;;;;;;;;;;4433815;32;19944;-71
2024/04/17 08:35:55;;;;;;;;;;;;;;;;;;4432062;32;19967;-71
2024/04/17 08:38:20;;;;;;;;;;;;;;;;;;4432375;32;20004;-70
2024/04/17 08:40:45;;;;;;;;;;;;;;;;;;4434636;32;19959;-69
2024/04/17 08:43:10;;;;;;;;;;;;;;;;;;4434740;32;19945;-71
2024/04/17 08:45:35;;;;;;;;;;;;;;;;;;4436465;32;19932;-70
2024/04/17 08:48:00;;;;;;;;;;;;;;;;;;4439968;32;19984;-72
2024/04/17 08:50:29;;;;;;;;;;;;;;;;;;4440038;32;20285;-72
2024/04/17 08:52:54;;;;;;;;;;;;;;;;;;4437836;32;20229;-72
2024/04/17 08:55:19;;;;;;;;;;;;;;;;;;4442759;32;20029;-72
2024/04/17 08:57:45;;;;;;;;;;;;;;;;;;4439207;32;20385;-71
2024/04/17 09:00:10;;;;;;;;;;;;;;;;;;4438710;32;19936;-71
2024/04/17 09:02:35;;;;;;;;;;;;;;;;;;4452807;32;19950;-72
2024/04/17 09:05:00;;;;;;;;;;;;;;;;;;4452841;32;19948;-72
2024/04/17 09:07:25;;;;;;;;;;;;;;;;;;4453865;32;19932;-72
2024/04/17 09:09:50;;;;;;;;;;;;;;;;;;4454341;32;19932;-72
2024/04/17 09:12:15;;;;;;;;;;;;;;;;;;4451150;32;19952;-71
2024/04/17 09:14:40;;;;;;;;;;;;;;;;;;4452433;32;19944;-72
2024/04/17 09:17:05;;;;;;;;;;;;;;;;;;4438353;32;19989;-71
2024/04/17 09:19:31;;;;;;;;;;;;;;;;;;4452193;32;19955;-73
2024/04/17 09:21:56;;;;;;;;;;;;;;;;;;4450451;32;19955;-70
2024/04/17 09:24:21;;;;;;;;;;;;;;;;;;4436681;32;19965;-73
2024/04/17 09:26:46;;;;;;;;;;;;;;;;;;4452439;32;19992;-70
2024/04/17 09:29:11;;;;;;;;;;;;;;;;;;4452779;32;19940;-70
2024/04/17 09:31:36;;;;;;;;;;;;;;;;;;4454277;32;20344;-72
2024/04/17 09:34:01;;;;;;;;;;;;;;;;;;4445518;32;19936;-71
2024/04/17 09:36:27;;;;;;;;;;;;;;;;;;4438306;32;19952;-71
2024/04/17 09:38:52;;;;;;;;;;;;;;;;;;4438772;32;19951;-71
2024/04/17 09:41:17;;;;;;;;;;;;;;;;;;4436998;32;19944;-71
2024/04/17 09:43:42;;;;;;;;;;;;;;;;;;4437216;32;19941;-70
2024/04/17 09:46:07;;;;;;;;;;;;;;;;;;4438740;32;19967;-72
2024/04/17 09:48:32;;;;;;;;;;;;;;;;;;4438788;32;19947;-71
2024/04/17 09:50:57;;;;;;;;;;;;;;;;;;4453645;32;19940;-70
2024/04/17 09:53:22;;;;;;;;;;;;;;;;;;4451932;32;19936;-69
2024/04/17 09:55:48;;;;;;;;;;;;;;;;;;4454474;32;19959;-71
2024/04/17 09:58:13;;;;;;;;;;;;;;;;;;4438177;32;20260;-72
2024/04/17 10:00:38;;;;;;;;;;;;;;;;;;4452804;32;19933;-70
2024/04/17 10:03:03;;;;;;;;;;;;;;;;;;4437797;32;19940;-72
2024/04/17 10:05:28;;;;;;;;;;;;;;;;;;4435990;32;19993;-73
2024/04/17 10:07:53;;;;;;;;;;;;;;;;;;4435935;32;19950;-72
2024/04/17 10:10:18;;;;;;;;;;;;;;;;;;4437913;32;19951;-73
2024/04/17 10:12:43;;;;;;;;;;;;;;;;;;4436887;32;19971;-74
2024/04/17 10:15:09;;;;;;;;;;;;;;;;;;4436583;32;19965;-73
2024/04/17 10:17:34;;;;;;;;;;;;;;;;;;4437054;32;19984;-74
2024/04/17 10:20:00;;;;;;;;;;;;;;;;;;4450108;32;20306;-73
2024/04/17 10:22:25;;;;;;;;;;;;;;;;;;4451755;32;19932;-72
2024/04/17 10:24:50;;;;;;;;;;;;;;;;;;4451871;32;20346;-72
2024/04/17 10:27:15;;;;;;;;;;;;;;;;;;4450514;32;19932;-73
2024/04/17 10:29:40;;;;;;;;;;;;;;;;;;4452765;32;19936;-73
2024/04/17 10:32:06;;;;;;;;;;;;;;;;;;4452681;32;19933;-72
2024/04/17 10:34:31;;;;;;;;;;;;;;;;;;4441454;32;19937;-73
2024/04/17 10:36:56;;;;;;;;;;;;;;;;;;4437672;32;19932;-72
2024/04/17 10:39:21;;;;;;;;;;;;;;;;;;4449402;32;20351;-72
2024/04/17 10:41:46;;;;;;;;;;;;;;;;;;4445775;32;19959;-71
2024/04/17 10:44:11;;;;;;;;;;;;;;;;;;4434244;32;19949;-71
2024/04/17 10:46:36;;;;;;;;;;;;;;;;;;4436241;32;20000;-72
2024/04/17 10:49:01;;;;;;;;;;;;;;;;;;4435225;32;19968;-72
2024/04/17 10:51:26;;;;;;;;;;;;;;;;;;4432744;32;19949;-71
2024/04/17 10:53:51;;;;;;;;;;;;;;;;;;4434203;32;19970;-72
2024/04/17 10:56:17;;;;;;;;;;;;;;;;;;4438287;32;19984;-72
2024/04/17 10:58:42;;;;;;;;;;;;;;;;;;4451499;32;20253;-72
2024/04/17 11:01:07;;;;;;;;;;;;;;;;;;4439104;32;19951;-73
2024/04/17 11:03:32;;;;;;;;;;;;;;;;;;4450761;32;19932;-72
2024/04/17 11:05:57;;;;;;;;;;;;;;;;;;4452784;32;20334;-72
2024/04/17 11:08:22;;;;;;;;;;;;;;;;;;4441895;32;19932;-72
2024/04/17 11:10:47;;;;;;;;;;;;;;;;;;4435370;32;19937;-73
2024/04/17 11:13:12;;;;;;;;;;;;;;;;;;4447838;32;20348;-72
2024/04/17 11:15:37;;;;;;;;;;;;;;;;;;4450806;32;19973;-71
2024/04/17 11:18:03;;;;;;;;;;;;;;;;;;4452009;32;19933;-72
2024/04/17 11:20:28;;;;;;;;;;;;;;;;;;4452120;32;20305;-72
2024/04/17 11:22:53;;;;;;;;;;;;;;;;;;4452032;32;19936;-73
2024/04/17 11:25:18;;;;;;;;;;;;;;;;;;4452693;32;19951;-74
2024/04/17 11:27:43;;;;;;;;;;;;;;;;;;4452075;32;19975;-75
2024/04/17 11:30:08;;;;;;;;;;;;;;;;;;4452187;32;19944;-74
2024/04/17 11:32:33;;;;;;;;;;;;;;;;;;4451149;32;19949;-73
2024/04/17 11:34:58;;;;;;;;;;;;;;;;;;4451283;32;19973;-74
2024/04/17 11:37:23;;;;;;;;;;;;;;;;;;4436445;32;19941;-73
2024/04/17 11:39:48;;;;;;;;;;;;;;;;;;4451059;32;19955;-73
2024/04/17 11:42:13;;;;;;;;;;;;;;;;;;4450633;32;19948;-73
2024/04/17 11:44:39;;;;;;;;;;;;;;;;;;4450580;32;19980;-74
2024/04/17 11:47:04;;;;;;;;;;;;;;;;;;4438248;32;19971;-74
2024/04/17 11:49:29;;;;;;;;;;;;;;;;;;4451489;32;19943;-74
2024/04/17 11:51:54;;;;;;;;;;;;;;;;;;4436726;32;20298;-74
2024/04/17 11:54:19;;;;;;;;;;;;;;;;;;4451515;32;20306;-72
2024/04/17 11:56:44;;;;;;;;;;;;;;;;;;4451654;32;20002;-73
2024/04/17 11:59:09;;;;;;;;;;;;;;;;;;4452110;32;19936;-72
2024/04/17 12:01:34;;;;;;;;;;;;;;;;;;4451670;32;19979;-73
2024/04/17 12:04:00;;;;;;;;;;;;;;;;;;4451778;32;19986;-73
2024/04/17 12:06:25;;;;;;;;;;;;;;;;;;4451703;32;19933;-73
2024/04/17 12:08:50;;;;;;;;;;;;;;;;;;4452095;32;19932;-72
2024/04/17 12:11:15;;;;;;;;;;;;;;;;;;4451577;32;19943;-72
2024/04/17 12:13:40;;;;;;;;;;;;;;;;;;4451145;32;19975;-72
2024/04/17 12:16:08;;;;;;;;;;;;;;;;;;4451668;32;19944;-71
2024/04/17 12:18:33;;;;;;;;;;;;;;;;;;4450543;32;19932;-71
2024/04/17 12:20:58;;;;;;;;;;;;;;;;;;4451891;32;19936;-72
2024/04/17 12:23:23;;;;;;;;;;;;;;;;;;4451061;32;19937;-71
2024/04/17 12:28:32;;;;;;;;;;;;;;;;;;4454423;32;20281;-72
2024/04/17 12:30:58;;;;;;;;;;;;;;;;;;4453076;32;19933;-71
2024/04/17 12:33:24;;;;;;;;;;;;;;;;;;4454816;32;19977;-72
2024/04/17 12:35:49;;;;;;;;;;;;;;;;;;4452566;32;20330;-73
2024/04/17 12:38:15;;;;;;;;;;;;;;;;;;4453343;32;19936;-72
2024/04/17 12:40:40;;;;;;;;;;;;;;;;;;4453464;32;19955;-71
2024/04/17 12:43:06;;;;;;;;;;;;;;;;;;4440045;32;19945;-72
2024/04/17 12:45:31;;;;;;;;;;;;;;;;;;4436332;32;20118;-70
2024/04/17 12:47:56;;;;;;;;;;;;;;;;;;4436714;32;19945;-71
2024/04/17 12:50:21;;;;;;;;;;;;;;;;;;4439845;32;19932;-71
2024/04/17 12:52:46;;;;;;;;;;;;;;;;;;4436846;32;19958;-72
2024/04/17 12:55:11;;;;;;;;;;;;;;;;;;4439829;32;19952;-71
2024/04/17 12:57:36;;;;;;;;;;;;;;;;;;4442808;32;19940;-70
2024/04/17 13:00:02;;;;;;;;;;;;;;;;;;4453769;32;20268;-71
2024/04/17 13:02:28;;;;;;;;;;;;;;;;;;4453396;32;20361;-72
2024/04/17 13:04:53;;;;;;;;;;;;;;;;;;4454446;32;20332;-70
2024/04/17 13:07:18;;;;;;;;;;;;;;;;;;4453558;32;19940;-71
2024/04/17 13:09:43;;;;;;;;;;;;;;;;;;4455188;32;19999;-71
2024/04/17 13:12:08;;;;;;;;;;;;;;;;;;4439453;32;20233;-69
2024/04/17 13:14:33;;;;;;;;;;;;;;;;;;4455821;32;19953;-71
2024/04/17 13:16:58;;;;;;;;;;;;;;;;;;4453504;32;19969;-70
2024/04/17 13:19:23;;;;;;;;;;;;;;;;;;4439999;32;19957;-72
2024/04/17 13:21:49;;;;;;;;;;;;;;;;;;4454336;32;20036;-70
2024/04/17 13:24:14;;;;;;;;;;;;;;;;;;4439358;32;19987;-70
2024/04/17 13:26:39;;;;;;;;;;;;;;;;;;4453021;32;20289;-71
2024/04/17 13:29:04;;;;;;;;;;;;;;;;;;4439737;32;20341;-70
2024/04/17 13:31:29;;;;;;;;;;;;;;;;;;4436967;32;20004;-70
2024/04/17 13:33:54;;;;;;;;;;;;;;;;;;4439722;32;19972;-70
2024/04/17 13:36:19;;;;;;;;;;;;;;;;;;4438545;32;20218;-72
2024/04/17 13:38:44;;;;;;;;;;;;;;;;;;4437635;32;19968;-70
2024/04/17 13:41:09;;;;;;;;;;;;;;;;;;4439246;32;19947;-70
2024/04/17 13:43:34;;;;;;;;;;;;;;;;;;4451520;32;19990;-71
2024/04/17 13:46:00;;;;;;;;;;;;;;;;;;4454350;32;19940;-72
2024/04/17 13:48:25;;;;;;;;;;;;;;;;;;4452409;32;19952;-70
2024/04/17 13:50:50;;;;;;;;;;;;;;;;;;4452984;32;20004;-72
2024/04/17 13:53:15;;;;;;;;;;;;;;;;;;4454024;32;20257;-71
2024/04/17 13:55:40;;;;;;;;;;;;;;;;;;4438197;32;19973;-72
2024/04/17 13:58:05;;;;;;;;;;;;;;;;;;4442835;32;20273;-70
2024/04/17 14:00:30;;;;;;;;;;;;;;;;;;4435942;32;19945;-71
2024/04/17 14:02:58;;;;;;;;;;;;;;;;;;4437016;32;20056;-70
2024/04/17 14:05:25;;;;;;;;;;;;;;;;;;4437739;32;19970;-69
2024/04/17 14:07:50;;;;;;;;;;;;;;;;;;4435961;32;19936;-70
2024/04/17 14:10:15;;;;;;;;;;;;;;;;;;4435466;32;19936;-69
2024/04/17 14:12:40;;;;;;;;;;;;;;;;;;4444649;32;20273;-70
2024/04/17 14:15:06;;;;;;;;;;;;;;;;;;4452542;32;19997;-71
2024/04/17 14:17:31;;;;;;;;;;;;;;;;;;4453548;32;19936;-70
2024/04/17 14:19:57;;;;;;;;;;;;;;;;;;4452953;32;19932;-72
2024/04/17 14:22:22;;;;;;;;;;;;;;;;;;4453880;32;19941;-75
2024/04/17 14:24:47;;;;;;;;;;;;;;;;;;4448677;32;20562;-74
2024/04/17 14:27:12;;;;;;;;;;;;;;;;;;4449813;32;20257;-77
2024/04/17 14:29:37;;;;;;;;;;;;;;;;;;4436477;32;19951;-80
2024/04/17 14:32:02;;;;;;;;;;;;;;;;;;4437601;32;19937;-80
2024/04/17 14:34:27;;;;;;;;;;;;;;;;;;4436447;32;19955;-76
2024/04/17 14:36:52;;;;;;;;;;;;;;;;;;4436224;32;19952;-72
2024/04/17 14:39:17;;;;;;;;;;;;;;;;;;4436466;32;19933;-71
2024/04/17 14:41:42;;;;;;;;;;;;;;;;;;4435807;32;19994;-66
2024/04/17 14:44:08;;;;;;;;;;;;;;;;;;4436429;32;19932;-65
2024/04/17 14:46:33;;;;;;;;;;;;;;;;;;4435657;32;19942;-64
2024/04/17 14:48:58;;;;;;;;;;;;;;;;;;4436775;32;19944;-64
2024/04/17 14:51:23;;;;;;;;;;;;;;;;;;4435127;32;19968;-64
2024/04/17 14:53:49;;;;;;;;;;;;;;;;;;4437206;32;19941;-64
2024/04/17 14:56:14;;;;;;;;;;;;;;;;;;4438343;32;19932;-62
2024/04/17 14:58:39;;;;;;;;;;;;;;;;;;4438347;32;19936;-63
2024/04/17 15:01:05;;;;;;;;;;;;;;;;;;4433982;32;19988;-64
2024/04/17 15:03:30;;;;;;;;;;;;;;;;;;4432791;32;20000;-64
2024/04/17 15:05:56;;;;;;;;;;;;;;;;;;4434517;32;20237;-63
2024/04/17 15:08:21;;;;;;;;;;;;;;;;;;4437051;32;19970;-64
2024/04/17 15:10:46;;;;;;;;;;;;;;;;;;4435324;32;19974;-63
2024/04/17 15:13:11;;;;;;;;;;;;;;;;;;4436613;32;20274;-63
2024/04/17 15:15:36;;;;;;;;;;;;;;;;;;4437033;32;19933;-63
2024/04/17 15:18:01;;;;;;;;;;;;;;;;;;4436623;32;19959;-64
2024/04/17 15:20:26;;;;;;;;;;;;;;;;;;4437249;32;19937;-63
2024/04/17 15:22:52;;;;;;;;;;;;;;;;;;4435650;32;19932;-64
2024/04/17 15:25:17;;;;;;;;;;;;;;;;;;4435155;32;19952;-63
2024/04/17 15:27:42;;;;;;;;;;;;;;;;;;4448988;32;19940;-63
2024/04/17 15:30:09;;;;;;;;;;;;;;;;;;4438365;32;19948;-63
2024/04/17 15:32:34;;;;;;;;;;;;;;;;;;4436975;32;19963;-65
2024/04/17 15:34:59;;;;;;;;;;;;;;;;;;4452163;32;20268;-63
2024/04/17 15:37:24;;;;;;;;;;;;;;;;;;4450070;32;20001;-62
2024/04/17 15:39:49;;;;;;;;;;;;;;;;;;4452423;32;19936;-64
2024/04/17 15:42:14;;;;;;;;;;;;;;;;;;4450414;32;20121;-63
2024/04/17 15:44:39;;;;;;;;;;;;;;;;;;4451616;32;19937;-62
2024/04/17 15:47:04;;;;;;;;;;;;;;;;;;4452108;32;19978;-63
2024/04/17 15:49:30;;;;;;;;;;;;;;;;;;4451239;32;20355;-62
2024/04/17 15:51:55;;;;;;;;;;;;;;;;;;4450273;32;19941;-62
2024/04/17 15:54:20;;;;;;;;;;;;;;;;;;4450593;32;20237;-64
2024/04/17 15:56:45;;;;;;;;;;;;;;;;;;4442303;32;20358;-63
2024/04/17 15:59:13;;;;;;;;;;;;;;;;;;4435630;32;19933;-64
2024/04/17 16:01:38;;;;;;;;;;;;;;;;;;4437362;32;19957;-64
2024/04/17 16:04:03;;;;;;;;;;;;;;;;;;4441587;32;19947;-63
2024/04/17 16:06:28;;;;;;;;;;;;;;;;;;4440629;32;19971;-63
2024/04/17 16:08:53;;;;;;;;;;;;;;;;;;4441361;32;19937;-63
2024/04/17 16:11:21;;;;;;;;;;;;;;;;;;4432483;32;20269;-65
2024/04/17 16:13:47;;;;;;;;;;;;;;;;;;4442053;32;20237;-63
2024/04/17 16:16:12;;;;;;;;;;;;;;;;;;4440314;32;20261;-63
2024/04/17 16:18:38;;;;;;;;;;;;;;;;;;4441630;32;20032;-63
2024/04/17 16:21:03;;;;;;;;;;;;;;;;;;4441709;32;19932;-62
2024/04/17 16:23:28;;;;;;;;;;;;;;;;;;4439899;32;19984;-63
2024/04/17 16:25:53;;;;;;;;;;;;;;;;;;4447218;32;19972;-63
2024/04/17 16:28:19;;;;;;;;;;;;;;;;;;4456806;32;19989;-63
2024/04/17 16:30:44;;;;;;;;;;;;;;;;;;4442930;32;19988;-65
2024/04/17 16:33:09;;;;;;;;;;;;;;;;;;4455216;32;19952;-65